LROD

Details ICAO LROD (OMR)
Name ORADEA
Region Romania
Timezone Europe/Bucharest (UTC+2.0)
Plans Departing 16
Arriving 23
Stats Elevation 465 ft / 142 m (AMSL)
Location 47.025323° 21.902410°
Runways 1
Magnetic Variation 5.237° E
Sunrise 2017-12-15 06:12:55 UTC / 2017-12-15 08:12:55 Local
Sunset 2017-12-15 14:44:54 UTC / 2017-12-15 16:44:54 Local
Advertisement - Login to hide

Runways

ID Width Length Bearing (true) Bearing (mag) Surface Threshold Offset Overrun Length
01 98 ft / 30 m 5,862 ft / 1,787 m 11.12° 5.88° Concrete 0 ft / 0 m 0 ft / 0 m
19 98 ft / 30 m 5,862 ft / 1,787 m 191.13° 185.89° Concrete 0 ft / 0 m 0 ft / 0 m

Approach Navaids

Runway Type Ident Frequency Range Bearing (true) Bearing (mag) Slope Elevation
19 Localiser IOD 109.50 MHz 18 nm / 33 km 191.11° 185.88° - 450 ft / 137 m (AMSL)
19 Glidescope IOD 109.50 MHz 10 nm / 19 km 191.13° 185.89° 2.70° 450 ft / 137 m (AMSL)

Map

Weather


0- 5 10 15 20 25 30 35+ Temperature / ° C

Clouds and Precipitation
Forecast for 2017-12-15 12:00 UTC. Updated 2 hours ago

Ground ~20,000 ft ~40,000 ft Winds

METAR

LROD 151030Z 01005KT 340V050 9999 FEW015 FEW027CB BKN045 08/07 Q1003 R01/29//95

TAF

Not found

Frequencies

Tower 120.20 MHz TWR
Approach 120.20 MHz APP
Warning: Do not use this data for real-world aviation or navigation. No guarantee of current accuracy is given.